sensor_id;sensor_type;location;lat;lon;timestamp;P1;durP1;ratioP1;P2;durP2;ratioP2
46415;SDS011;32620;51.704;7.822;2023-06-10T00:00:54;16.13;;;14.43;;
46415;SDS011;32620;51.704;7.822;2023-06-10T00:03:20;18.50;;;15.57;;
46415;SDS011;32620;51.704;7.822;2023-06-10T00:05:48;15.73;;;14.10;;
46415;SDS011;32620;51.704;7.822;2023-06-10T00:08:14;18.50;;;15.75;;
46415;SDS011;32620;51.704;7.822;2023-06-10T00:10:44;16.15;;;14.45;;
46415;SDS011;32620;51.704;7.822;2023-06-10T00:13:09;16.88;;;14.90;;
46415;SDS011;32620;51.704;7.822;2023-06-10T00:15:36;16.13;;;14.40;;
46415;SDS011;32620;51.704;7.822;2023-06-10T00:18:02;23.58;;;14.38;;
46415;SDS011;32620;51.704;7.822;2023-06-10T00:20:28;18.60;;;15.13;;
46415;SDS011;32620;51.704;7.822;2023-06-10T00:22:55;16.33;;;14.60;;
46415;SDS011;32620;51.704;7.822;2023-06-10T00:25:22;15.63;;;13.85;;
46415;SDS011;32620;51.704;7.822;2023-06-10T00:27:47;18.25;;;14.48;;
46415;SDS011;32620;51.704;7.822;2023-06-10T00:30:13;18.55;;;14.82;;
46415;SDS011;32620;51.704;7.822;2023-06-10T00:32:39;16.45;;;13.70;;
46415;SDS011;32620;51.704;7.822;2023-06-10T00:35:05;16.17;;;12.85;;
46415;SDS011;32620;51.704;7.822;2023-06-10T00:37:32;20.85;;;14.82;;
46415;SDS011;32620;51.704;7.822;2023-06-10T00:39:59;15.90;;;13.85;;
46415;SDS011;32620;51.704;7.822;2023-06-10T00:42:25;18.48;;;13.43;;
46415;SDS011;32620;51.704;7.822;2023-06-10T00:44:51;17.50;;;13.73;;
46415;SDS011;32620;51.704;7.822;2023-06-10T00:47:16;15.48;;;13.02;;
46415;SDS011;32620;51.704;7.822;2023-06-10T00:49:42;15.90;;;12.55;;
46415;SDS011;32620;51.704;7.822;2023-06-10T00:52:09;17.90;;;13.48;;
46415;SDS011;32620;51.704;7.822;2023-06-10T00:54:35;18.75;;;13.00;;
46415;SDS011;32620;51.704;7.822;2023-06-10T00:57:02;15.30;;;13.30;;
46415;SDS011;32620;51.704;7.822;2023-06-10T00:59:29;15.63;;;12.55;;
46415;SDS011;32620;51.704;7.822;2023-06-10T01:01:55;14.88;;;12.20;;
46415;SDS011;32620;51.704;7.822;2023-06-10T01:04:21;15.43;;;13.18;;
46415;SDS011;32620;51.704;7.822;2023-06-10T01:09:45;17.55;;;13.25;;
46415;SDS011;32620;51.704;7.822;2023-06-10T01:12:46;16.80;;;12.68;;
46415;SDS011;32620;51.704;7.822;2023-06-10T01:15:19;19.00;;;13.52;;
46415;SDS011;32620;51.704;7.822;2023-06-10T01:18:02;19.92;;;13.93;;
46415;SDS011;32620;51.704;7.822;2023-06-10T01:20:33;17.25;;;13.48;;
46415;SDS011;32620;51.704;7.822;2023-06-10T01:23:02;16.42;;;12.70;;
46415;SDS011;32620;51.704;7.822;2023-06-10T01:25:28;17.85;;;13.27;;
46415;SDS011;32620;51.704;7.822;2023-06-10T01:28:07;17.20;;;12.75;;
46415;SDS011;32620;51.704;7.822;2023-06-10T01:30:43;15.52;;;12.35;;
46415;SDS011;32620;51.704;7.822;2023-06-10T01:33:16;15.95;;;12.32;;
46415;SDS011;32620;51.704;7.822;2023-06-10T01:35:45;16.83;;;12.65;;
46415;SDS011;32620;51.704;7.822;2023-06-10T01:38:12;17.92;;;13.10;;
46415;SDS011;32620;51.704;7.822;2023-06-10T01:40:40;18.20;;;12.45;;
46415;SDS011;32620;51.704;7.822;2023-06-10T01:43:07;14.93;;;11.98;;
46415;SDS011;32620;51.704;7.822;2023-06-10T01:45:32;20.20;;;11.43;;
46415;SDS011;32620;51.704;7.822;2023-06-10T01:47:58;18.20;;;11.98;;
46415;SDS011;32620;51.704;7.822;2023-06-10T01:50:23;14.68;;;12.07;;
46415;SDS011;32620;51.704;7.822;2023-06-10T01:52:49;16.00;;;11.93;;
46415;SDS011;32620;51.704;7.822;2023-06-10T01:55:14;20.13;;;10.73;;
46415;SDS011;32620;51.704;7.822;2023-06-10T01:57:40;15.80;;;10.77;;
46415;SDS011;32620;51.704;7.822;2023-06-10T02:00:06;14.40;;;10.75;;
46415;SDS011;32620;51.704;7.822;2023-06-10T02:02:32;16.52;;;11.25;;
46415;SDS011;32620;51.704;7.822;2023-06-10T02:04:58;15.88;;;10.50;;
46415;SDS011;32620;51.704;7.822;2023-06-10T02:07:23;13.25;;;10.50;;
46415;SDS011;32620;51.704;7.822;2023-06-10T02:09:49;13.65;;;10.45;;
46415;SDS011;32620;51.704;7.822;2023-06-10T02:12:14;16.80;;;10.60;;
46415;SDS011;32620;51.704;7.822;2023-06-10T02:14:40;16.30;;;10.32;;
46415;SDS011;32620;51.704;7.822;2023-06-10T02:17:06;16.60;;;10.85;;
46415;SDS011;32620;51.704;7.822;2023-06-10T02:19:31;16.92;;;10.98;;
46415;SDS011;32620;51.704;7.822;2023-06-10T02:21:57;18.70;;;11.77;;
46415;SDS011;32620;51.704;7.822;2023-06-10T02:24:22;14.20;;;9.95;;
46415;SDS011;32620;51.704;7.822;2023-06-10T02:26:48;14.30;;;11.23;;
46415;SDS011;32620;51.704;7.822;2023-06-10T02:29:13;15.25;;;10.98;;
46415;SDS011;32620;51.704;7.822;2023-06-10T02:31:39;15.13;;;10.15;;
46415;SDS011;32620;51.704;7.822;2023-06-10T02:34:05;16.95;;;11.25;;
46415;SDS011;32620;51.704;7.822;2023-06-10T02:36:31;12.80;;;10.68;;
46415;SDS011;32620;51.704;7.822;2023-06-10T02:38:56;13.45;;;10.13;;
46415;SDS011;32620;51.704;7.822;2023-06-10T02:41:22;16.35;;;10.63;;
46415;SDS011;32620;51.704;7.822;2023-06-10T02:43:49;15.55;;;10.27;;
46415;SDS011;32620;51.704;7.822;2023-06-10T02:46:15;14.20;;;10.18;;
46415;SDS011;32620;51.704;7.822;2023-06-10T02:48:41;15.45;;;9.82;;
46415;SDS011;32620;51.704;7.822;2023-06-10T02:51:08;13.23;;;9.80;;
46415;SDS011;32620;51.704;7.822;2023-06-10T02:53:34;15.15;;;9.82;;
46415;SDS011;32620;51.704;7.822;2023-06-10T02:56:00;18.23;;;10.02;;
46415;SDS011;32620;51.704;7.822;2023-06-10T02:58:26;12.40;;;9.95;;
46415;SDS011;32620;51.704;7.822;2023-06-10T03:00:52;12.75;;;10.23;;
46415;SDS011;32620;51.704;7.822;2023-06-10T03:03:18;13.45;;;9.85;;
46415;SDS011;32620;51.704;7.822;2023-06-10T03:05:43;16.88;;;10.38;;
46415;SDS011;32620;51.704;7.822;2023-06-10T03:08:09;16.73;;;10.27;;
46415;SDS011;32620;51.704;7.822;2023-06-10T03:10:34;12.07;;;10.18;;
46415;SDS011;32620;51.704;7.822;2023-06-10T03:13:00;16.50;;;10.30;;
46415;SDS011;32620;51.704;7.822;2023-06-10T03:15:26;15.13;;;10.70;;
46415;SDS011;32620;51.704;7.822;2023-06-10T03:17:53;14.98;;;10.63;;
46415;SDS011;32620;51.704;7.822;2023-06-10T03:20:19;15.82;;;10.70;;
46415;SDS011;32620;51.704;7.822;2023-06-10T03:22:46;13.45;;;10.35;;
46415;SDS011;32620;51.704;7.822;2023-06-10T03:25:12;16.70;;;10.75;;
46415;SDS011;32620;51.704;7.822;2023-06-10T03:27:39;13.35;;;10.30;;
46415;SDS011;32620;51.704;7.822;2023-06-10T03:30:05;14.75;;;9.77;;
46415;SDS011;32620;51.704;7.822;2023-06-10T03:32:31;15.43;;;10.32;;
46415;SDS011;32620;51.704;7.822;2023-06-10T03:34:57;12.77;;;9.93;;
46415;SDS011;32620;51.704;7.822;2023-06-10T03:37:23;12.85;;;9.75;;
46415;SDS011;32620;51.704;7.822;2023-06-10T03:39:50;15.80;;;10.23;;
46415;SDS011;32620;51.704;7.822;2023-06-10T03:42:15;14.43;;;9.95;;
46415;SDS011;32620;51.704;7.822;2023-06-10T03:44:41;13.52;;;10.38;;
46415;SDS011;32620;51.704;7.822;2023-06-10T03:47:06;14.32;;;9.68;;
46415;SDS011;32620;51.704;7.822;2023-06-10T03:49:32;17.05;;;10.27;;
46415;SDS011;32620;51.704;7.822;2023-06-10T03:51:58;14.27;;;10.00;;
46415;SDS011;32620;51.704;7.822;2023-06-10T03:54:24;15.35;;;9.77;;
46415;SDS011;32620;51.704;7.822;2023-06-10T03:56:50;13.68;;;9.30;;
46415;SDS011;32620;51.704;7.822;2023-06-10T03:59:15;12.82;;;9.32;;
46415;SDS011;32620;51.704;7.822;2023-06-10T04:01:41;15.15;;;9.82;;
46415;SDS011;32620;51.704;7.822;2023-06-10T04:04:08;14.98;;;9.43;;
46415;SDS011;32620;51.704;7.822;2023-06-10T04:06:34;11.65;;;8.55;;
46415;SDS011;32620;51.704;7.822;2023-06-10T04:08:59;11.20;;;8.05;;
46415;SDS011;32620;51.704;7.822;2023-06-10T04:11:25;13.90;;;8.45;;
46415;SDS011;32620;51.704;7.822;2023-06-10T04:13:51;13.25;;;8.75;;
46415;SDS011;32620;51.704;7.822;2023-06-10T04:16:16;13.23;;;9.05;;
46415;SDS011;32620;51.704;7.822;2023-06-10T04:18:42;13.18;;;8.48;;
46415;SDS011;32620;51.704;7.822;2023-06-10T04:21:07;14.18;;;8.68;;
46415;SDS011;32620;51.704;7.822;2023-06-10T04:23:34;14.65;;;8.63;;
46415;SDS011;32620;51.704;7.822;2023-06-10T04:26:01;15.07;;;8.93;;
46415;SDS011;32620;51.704;7.822;2023-06-10T04:28:27;11.95;;;8.00;;
46415;SDS011;32620;51.704;7.822;2023-06-10T04:30:53;10.70;;;8.43;;
46415;SDS011;32620;51.704;7.822;2023-06-10T04:33:18;13.30;;;8.32;;
46415;SDS011;32620;51.704;7.822;2023-06-10T04:35:44;11.43;;;7.70;;
46415;SDS011;32620;51.704;7.822;2023-06-10T04:38:10;14.75;;;8.32;;
46415;SDS011;32620;51.704;7.822;2023-06-10T04:40:36;13.68;;;7.60;;
46415;SDS011;32620;51.704;7.822;2023-06-10T04:43:02;10.00;;;6.75;;
46415;SDS011;32620;51.704;7.822;2023-06-10T04:45:28;8.80;;;6.65;;
46415;SDS011;32620;51.704;7.822;2023-06-10T04:47:54;12.02;;;6.88;;
46415;SDS011;32620;51.704;7.822;2023-06-10T04:50:20;9.15;;;6.85;;
46415;SDS011;32620;51.704;7.822;2023-06-10T04:52:46;10.35;;;6.60;;
46415;SDS011;32620;51.704;7.822;2023-06-10T04:55:12;12.93;;;6.75;;
46415;SDS011;32620;51.704;7.822;2023-06-10T04:57:38;7.05;;;5.88;;
46415;SDS011;32620;51.704;7.822;2023-06-10T05:00:03;9.27;;;5.80;;
46415;SDS011;32620;51.704;7.822;2023-06-10T05:02:31;8.77;;;6.22;;
46415;SDS011;32620;51.704;7.822;2023-06-10T05:04:56;9.90;;;6.03;;
46415;SDS011;32620;51.704;7.822;2023-06-10T05:07:23;9.98;;;5.88;;
46415;SDS011;32620;51.704;7.822;2023-06-10T05:09:48;7.28;;;6.05;;
46415;SDS011;32620;51.704;7.822;2023-06-10T05:12:14;10.30;;;6.40;;
46415;SDS011;32620;51.704;7.822;2023-06-10T05:14:39;11.07;;;6.50;;
46415;SDS011;32620;51.704;7.822;2023-06-10T05:17:05;10.65;;;6.70;;
46415;SDS011;32620;51.704;7.822;2023-06-10T05:19:31;9.05;;;6.63;;
46415;SDS011;32620;51.704;7.822;2023-06-10T05:21:57;9.32;;;7.00;;
46415;SDS011;32620;51.704;7.822;2023-06-10T05:24:22;11.93;;;6.82;;
46415;SDS011;32620;51.704;7.822;2023-06-10T05:26:48;9.00;;;6.43;;
46415;SDS011;32620;51.704;7.822;2023-06-10T05:29:14;8.90;;;6.35;;
46415;SDS011;32620;51.704;7.822;2023-06-10T05:31:40;9.07;;;5.45;;
46415;SDS011;32620;51.704;7.822;2023-06-10T05:34:06;9.50;;;6.13;;
46415;SDS011;32620;51.704;7.822;2023-06-10T05:36:32;8.60;;;6.05;;
46415;SDS011;32620;51.704;7.822;2023-06-10T05:38:57;9.48;;;5.28;;
46415;SDS011;32620;51.704;7.822;2023-06-10T05:41:23;7.25;;;5.65;;
46415;SDS011;32620;51.704;7.822;2023-06-10T05:43:48;6.47;;;5.45;;
46415;SDS011;32620;51.704;7.822;2023-06-10T05:46:14;8.40;;;5.40;;
46415;SDS011;32620;51.704;7.822;2023-06-10T05:48:39;6.93;;;5.47;;
46415;SDS011;32620;51.704;7.822;2023-06-10T05:51:05;10.82;;;5.47;;
46415;SDS011;32620;51.704;7.822;2023-06-10T05:53:31;11.38;;;6.20;;
46415;SDS011;32620;51.704;7.822;2023-06-10T05:55:57;6.68;;;5.78;;
46415;SDS011;32620;51.704;7.822;2023-06-10T05:58:23;8.68;;;5.13;;
46415;SDS011;32620;51.704;7.822;2023-06-10T06:00:49;8.30;;;5.72;;
46415;SDS011;32620;51.704;7.822;2023-06-10T06:03:15;8.70;;;5.20;;
46415;SDS011;32620;51.704;7.822;2023-06-10T06:05:41;8.20;;;4.97;;
46415;SDS011;32620;51.704;7.822;2023-06-10T06:08:07;9.68;;;5.72;;
46415;SDS011;32620;51.704;7.822;2023-06-10T06:10:33;9.27;;;4.95;;
46415;SDS011;32620;51.704;7.822;2023-06-10T06:12:59;6.68;;;5.13;;
46415;SDS011;32620;51.704;7.822;2023-06-10T06:15:25;8.27;;;5.25;;
46415;SDS011;32620;51.704;7.822;2023-06-10T06:17:51;6.55;;;4.15;;
46415;SDS011;32620;51.704;7.822;2023-06-10T06:20:18;6.45;;;5.15;;
46415;SDS011;32620;51.704;7.822;2023-06-10T06:22:44;8.85;;;5.50;;
46415;SDS011;32620;51.704;7.822;2023-06-10T06:25:10;6.07;;;4.18;;
46415;SDS011;32620;51.704;7.822;2023-06-10T06:27:36;8.20;;;4.70;;
46415;SDS011;32620;51.704;7.822;2023-06-10T06:30:01;5.90;;;4.32;;
46415;SDS011;32620;51.704;7.822;2023-06-10T06:32:27;5.07;;;4.28;;
46415;SDS011;32620;51.704;7.822;2023-06-10T06:34:53;5.28;;;3.90;;
46415;SDS011;32620;51.704;7.822;2023-06-10T06:37:21;5.15;;;4.43;;
46415;SDS011;32620;51.704;7.822;2023-06-10T06:39:47;6.40;;;4.25;;
46415;SDS011;32620;51.704;7.822;2023-06-10T06:42:13;5.22;;;4.30;;
46415;SDS011;32620;51.704;7.822;2023-06-10T06:44:39;6.97;;;4.70;;
46415;SDS011;32620;51.704;7.822;2023-06-10T06:47:04;7.50;;;4.43;;
46415;SDS011;32620;51.704;7.822;2023-06-10T06:49:30;6.13;;;4.28;;
46415;SDS011;32620;51.704;7.822;2023-06-10T06:51:55;7.15;;;4.60;;
46415;SDS011;32620;51.704;7.822;2023-06-10T06:54:21;6.13;;;4.43;;
46415;SDS011;32620;51.704;7.822;2023-06-10T06:56:46;5.68;;;4.40;;
46415;SDS011;32620;51.704;7.822;2023-06-10T06:59:12;5.20;;;4.03;;
46415;SDS011;32620;51.704;7.822;2023-06-10T07:01:39;6.47;;;4.55;;
46415;SDS011;32620;51.704;7.822;2023-06-10T07:04:04;6.50;;;4.18;;
46415;SDS011;32620;51.704;7.822;2023-06-10T07:06:30;8.55;;;4.38;;
46415;SDS011;32620;51.704;7.822;2023-06-10T07:08:55;6.05;;;4.30;;
46415;SDS011;32620;51.704;7.822;2023-06-10T07:11:21;6.93;;;4.05;;
46415;SDS011;32620;51.704;7.822;2023-06-10T07:13:47;9.23;;;4.13;;
46415;SDS011;32620;51.704;7.822;2023-06-10T07:16:12;5.43;;;4.47;;
46415;SDS011;32620;51.704;7.822;2023-06-10T07:18:38;5.80;;;3.88;;
46415;SDS011;32620;51.704;7.822;2023-06-10T07:21:03;11.20;;;3.88;;
46415;SDS011;32620;51.704;7.822;2023-06-10T07:23:29;6.18;;;4.13;;
46415;SDS011;32620;51.704;7.822;2023-06-10T07:25:55;6.38;;;4.28;;
46415;SDS011;32620;51.704;7.822;2023-06-10T07:28:20;5.95;;;4.10;;
46415;SDS011;32620;51.704;7.822;2023-06-10T07:30:46;5.57;;;4.28;;
46415;SDS011;32620;51.704;7.822;2023-06-10T07:33:11;7.15;;;4.50;;
46415;SDS011;32620;51.704;7.822;2023-06-10T07:35:37;7.20;;;4.55;;
46415;SDS011;32620;51.704;7.822;2023-06-10T07:38:02;8.27;;;4.05;;
46415;SDS011;32620;51.704;7.822;2023-06-10T07:40:28;6.30;;;4.13;;
46415;SDS011;32620;51.704;7.822;2023-06-10T07:42:54;6.25;;;4.30;;
46415;SDS011;32620;51.704;7.822;2023-06-10T07:45:20;9.10;;;4.50;;
46415;SDS011;32620;51.704;7.822;2023-06-10T07:47:46;6.22;;;4.15;;
46415;SDS011;32620;51.704;7.822;2023-06-10T07:50:11;6.43;;;4.55;;
46415;SDS011;32620;51.704;7.822;2023-06-10T07:52:37;4.97;;;4.32;;
46415;SDS011;32620;51.704;7.822;2023-06-10T07:55:03;7.47;;;4.35;;
46415;SDS011;32620;51.704;7.822;2023-06-10T07:57:29;10.15;;;4.40;;
46415;SDS011;32620;51.704;7.822;2023-06-10T07:59:56;8.18;;;3.83;;
46415;SDS011;32620;51.704;7.822;2023-06-10T08:02:25;18.98;;;4.50;;
46415;SDS011;32620;51.704;7.822;2023-06-10T08:04:50;9.43;;;4.22;;
46415;SDS011;32620;51.704;7.822;2023-06-10T08:07:16;5.10;;;4.20;;
46415;SDS011;32620;51.704;7.822;2023-06-10T08:09:43;4.80;;;3.92;;
46415;SDS011;32620;51.704;7.822;2023-06-10T08:12:08;6.28;;;4.00;;
46415;SDS011;32620;51.704;7.822;2023-06-10T08:14:34;5.10;;;4.05;;
46415;SDS011;32620;51.704;7.822;2023-06-10T08:16:59;6.55;;;4.20;;
46415;SDS011;32620;51.704;7.822;2023-06-10T08:19:25;5.65;;;4.00;;
46415;SDS011;32620;51.704;7.822;2023-06-10T08:21:51;7.13;;;4.30;;
46415;SDS011;32620;51.704;7.822;2023-06-10T08:24:16;6.20;;;4.30;;
46415;SDS011;32620;51.704;7.822;2023-06-10T08:26:43;5.28;;;4.10;;
46415;SDS011;32620;51.704;7.822;2023-06-10T08:29:09;7.28;;;3.95;;
46415;SDS011;32620;51.704;7.822;2023-06-10T08:31:36;7.97;;;4.32;;
46415;SDS011;32620;51.704;7.822;2023-06-10T08:34:02;8.68;;;4.38;;
46415;SDS011;32620;51.704;7.822;2023-06-10T08:36:27;7.60;;;4.43;;
46415;SDS011;32620;51.704;7.822;2023-06-10T08:38:53;8.25;;;4.50;;
46415;SDS011;32620;51.704;7.822;2023-06-10T08:41:18;11.27;;;4.60;;
46415;SDS011;32620;51.704;7.822;2023-06-10T08:43:48;7.07;;;4.38;;
46415;SDS011;32620;51.704;7.822;2023-06-10T08:46:22;5.55;;;4.72;;
46415;SDS011;32620;51.704;7.822;2023-06-10T08:48:48;5.85;;;4.50;;
46415;SDS011;32620;51.704;7.822;2023-06-10T08:51:16;4.47;;;4.07;;
46415;SDS011;32620;51.704;7.822;2023-06-10T08:53:47;6.63;;;4.70;;
46415;SDS011;32620;51.704;7.822;2023-06-10T08:56:17;8.45;;;4.57;;
46415;SDS011;32620;51.704;7.822;2023-06-10T08:58:44;6.55;;;4.25;;
46415;SDS011;32620;51.704;7.822;2023-06-10T09:01:10;5.85;;;4.22;;
46415;SDS011;32620;51.704;7.822;2023-06-10T09:03:37;4.97;;;4.43;;
46415;SDS011;32620;51.704;7.822;2023-06-10T09:06:04;10.10;;;4.65;;
46415;SDS011;32620;51.704;7.822;2023-06-10T09:08:30;9.13;;;4.40;;
46415;SDS011;32620;51.704;7.822;2023-06-10T09:10:56;7.32;;;4.57;;
46415;SDS011;32620;51.704;7.822;2023-06-10T09:13:22;6.68;;;4.63;;
46415;SDS011;32620;51.704;7.822;2023-06-10T09:15:48;8.82;;;4.45;;
46415;SDS011;32620;51.704;7.822;2023-06-10T09:18:14;7.05;;;4.28;;
46415;SDS011;32620;51.704;7.822;2023-06-10T09:20:39;6.22;;;4.68;;
46415;SDS011;32620;51.704;7.822;2023-06-10T09:23:06;7.40;;;4.53;;
46415;SDS011;32620;51.704;7.822;2023-06-10T09:25:34;7.15;;;4.65;;
46415;SDS011;32620;51.704;7.822;2023-06-10T09:28:02;10.32;;;4.90;;
46415;SDS011;32620;51.704;7.822;2023-06-10T09:30:29;5.07;;;4.57;;
46415;SDS011;32620;51.704;7.822;2023-06-10T09:32:59;5.40;;;4.57;;
46415;SDS011;32620;51.704;7.822;2023-06-10T09:35:26;7.43;;;5.13;;
46415;SDS011;32620;51.704;7.822;2023-06-10T09:37:54;5.15;;;4.55;;
46415;SDS011;32620;51.704;7.822;2023-06-10T09:40:22;8.30;;;4.75;;
46415;SDS011;32620;51.704;7.822;2023-06-10T09:42:56;6.00;;;4.68;;
46415;SDS011;32620;51.704;7.822;2023-06-10T09:45:24;8.30;;;4.97;;
46415;SDS011;32620;51.704;7.822;2023-06-10T09:47:55;5.65;;;4.63;;
46415;SDS011;32620;51.704;7.822;2023-06-10T09:50:20;7.93;;;5.20;;
46415;SDS011;32620;51.704;7.822;2023-06-10T09:52:46;5.22;;;4.82;;
46415;SDS011;32620;51.704;7.822;2023-06-10T09:55:13;6.00;;;4.93;;
46415;SDS011;32620;51.704;7.822;2023-06-10T09:57:38;6.63;;;5.18;;
46415;SDS011;32620;51.704;7.822;2023-06-10T10:00:06;6.07;;;4.80;;
46415;SDS011;32620;51.704;7.822;2023-06-10T10:02:50;5.80;;;4.90;;
46415;SDS011;32620;51.704;7.822;2023-06-10T10:05:18;7.38;;;4.82;;
46415;SDS011;32620;51.704;7.822;2023-06-10T10:07:46;8.90;;;5.10;;
46415;SDS011;32620;51.704;7.822;2023-06-10T10:10:13;10.63;;;5.20;;
46415;SDS011;32620;51.704;7.822;2023-06-10T10:12:40;5.65;;;5.03;;
46415;SDS011;32620;51.704;7.822;2023-06-10T10:15:07;5.60;;;5.10;;
46415;SDS011;32620;51.704;7.822;2023-06-10T10:17:40;6.57;;;5.53;;
46415;SDS011;32620;51.704;7.822;2023-06-10T10:20:12;7.15;;;5.63;;
46415;SDS011;32620;51.704;7.822;2023-06-10T10:22:42;8.20;;;5.20;;
46415;SDS011;32620;51.704;7.822;2023-06-10T10:25:10;9.85;;;5.55;;
46415;SDS011;32620;51.704;7.822;2023-06-10T10:27:41;6.93;;;5.28;;
46415;SDS011;32620;51.704;7.822;2023-06-10T10:30:09;9.80;;;5.20;;
46415;SDS011;32620;51.704;7.822;2023-06-10T10:32:38;8.20;;;5.25;;
46415;SDS011;32620;51.704;7.822;2023-06-10T10:35:12;7.55;;;5.00;;
46415;SDS011;32620;51.704;7.822;2023-06-10T10:37:43;8.02;;;5.25;;
46415;SDS011;32620;51.704;7.822;2023-06-10T10:40:08;8.30;;;5.10;;
46415;SDS011;32620;51.704;7.822;2023-06-10T10:42:36;10.23;;;5.07;;
46415;SDS011;32620;51.704;7.822;2023-06-10T10:45:03;7.38;;;5.25;;
46415;SDS011;32620;51.704;7.822;2023-06-10T10:47:30;7.45;;;5.53;;
46415;SDS011;32620;51.704;7.822;2023-06-10T10:49:58;7.53;;;5.60;;
46415;SDS011;32620;51.704;7.822;2023-06-10T10:52:24;7.43;;;5.65;;
46415;SDS011;32620;51.704;7.822;2023-06-10T10:54:52;6.75;;;4.72;;
46415;SDS011;32620;51.704;7.822;2023-06-10T10:57:20;5.93;;;5.43;;
46415;SDS011;32620;51.704;7.822;2023-06-10T11:02:18;6.25;;;5.65;;
46415;SDS011;32620;51.704;7.822;2023-06-10T11:04:56;6.85;;;5.95;;
46415;SDS011;32620;51.704;7.822;2023-06-10T11:07:24;7.15;;;6.45;;
46415;SDS011;32620;51.704;7.822;2023-06-10T11:15:22;9.05;;;6.50;;
46415;SDS011;32620;51.704;7.822;2023-06-10T11:20:51;8.98;;;6.38;;
46415;SDS011;32620;51.704;7.822;2023-06-10T11:26:14;7.35;;;6.15;;
46415;SDS011;32620;51.704;7.822;2023-06-10T11:31:30;7.93;;;6.22;;
46415;SDS011;32620;51.704;7.822;2023-06-10T11:34:00;7.05;;;6.38;;
46415;SDS011;32620;51.704;7.822;2023-06-10T11:36:28;8.93;;;6.10;;
46415;SDS011;32620;51.704;7.822;2023-06-10T11:38:56;8.38;;;6.00;;
46415;SDS011;32620;51.704;7.822;2023-06-10T11:41:23;7.05;;;6.07;;
46415;SDS011;32620;51.704;7.822;2023-06-10T11:43:50;7.72;;;5.40;;
46415;SDS011;32620;51.704;7.822;2023-06-10T11:46:17;10.68;;;6.18;;
46415;SDS011;32620;51.704;7.822;2023-06-10T11:48:58;7.90;;;5.28;;
46415;SDS011;32620;51.704;7.822;2023-06-10T11:51:25;9.40;;;6.15;;
46415;SDS011;32620;51.704;7.822;2023-06-10T11:53:52;8.90;;;6.28;;
46415;SDS011;32620;51.704;7.822;2023-06-10T11:56:26;10.73;;;5.50;;
46415;SDS011;32620;51.704;7.822;2023-06-10T11:58:53;7.55;;;5.85;;
46415;SDS011;32620;51.704;7.822;2023-06-10T12:01:22;7.13;;;6.20;;
46415;SDS011;32620;51.704;7.822;2023-06-10T12:03:56;7.18;;;5.68;;
46415;SDS011;32620;51.704;7.822;2023-06-10T12:06:26;6.80;;;5.90;;
46415;SDS011;32620;51.704;7.822;2023-06-10T12:08:53;7.40;;;5.68;;
46415;SDS011;32620;51.704;7.822;2023-06-10T12:11:19;8.38;;;5.97;;
46415;SDS011;32620;51.704;7.822;2023-06-10T12:13:47;8.98;;;5.72;;
46415;SDS011;32620;51.704;7.822;2023-06-10T12:16:14;6.38;;;5.47;;
46415;SDS011;32620;51.704;7.822;2023-06-10T12:18:42;7.47;;;6.63;;
46415;SDS011;32620;51.704;7.822;2023-06-10T12:21:25;11.57;;;6.50;;
46415;SDS011;32620;51.704;7.822;2023-06-10T12:24:07;8.50;;;6.60;;
46415;SDS011;32620;51.704;7.822;2023-06-10T12:29:15;11.68;;;5.95;;
46415;SDS011;32620;51.704;7.822;2023-06-10T12:32:13;7.95;;;5.78;;
46415;SDS011;32620;51.704;7.822;2023-06-10T12:34:35;7.40;;;5.85;;
46415;SDS011;32620;51.704;7.822;2023-06-10T12:37:04;8.32;;;5.78;;
46415;SDS011;32620;51.704;7.822;2023-06-10T12:39:32;6.18;;;5.47;;
46415;SDS011;32620;51.704;7.822;2023-06-10T12:41:59;10.30;;;5.85;;
46415;SDS011;32620;51.704;7.822;2023-06-10T12:44:28;8.35;;;6.40;;
46415;SDS011;32620;51.704;7.822;2023-06-10T12:46:55;8.13;;;6.22;;
46415;SDS011;32620;51.704;7.822;2023-06-10T12:49:20;10.82;;;6.57;;
46415;SDS011;32620;51.704;7.822;2023-06-10T12:51:46;7.88;;;6.53;;
46415;SDS011;32620;51.704;7.822;2023-06-10T12:54:12;7.60;;;6.47;;
46415;SDS011;32620;51.704;7.822;2023-06-10T12:56:38;11.15;;;6.72;;
46415;SDS011;32620;51.704;7.822;2023-06-10T12:59:04;7.63;;;6.60;;
46415;SDS011;32620;51.704;7.822;2023-06-10T13:01:29;9.25;;;6.47;;
46415;SDS011;32620;51.704;7.822;2023-06-10T13:03:56;7.45;;;6.22;;
46415;SDS011;32620;51.704;7.822;2023-06-10T13:06:22;8.05;;;6.15;;
46415;SDS011;32620;51.704;7.822;2023-06-10T13:08:48;7.82;;;6.55;;
46415;SDS011;32620;51.704;7.822;2023-06-10T13:11:13;10.90;;;6.60;;
46415;SDS011;32620;51.704;7.822;2023-06-10T13:13:39;6.93;;;6.22;;
46415;SDS011;32620;51.704;7.822;2023-06-10T13:16:05;11.07;;;6.28;;
46415;SDS011;32620;51.704;7.822;2023-06-10T13:18:32;9.02;;;6.63;;
46415;SDS011;32620;51.704;7.822;2023-06-10T13:21:02;6.68;;;5.97;;
46415;SDS011;32620;51.704;7.822;2023-06-10T13:23:28;9.57;;;6.05;;
46415;SDS011;32620;51.704;7.822;2023-06-10T13:25:54;8.38;;;6.45;;
46415;SDS011;32620;51.704;7.822;2023-06-10T13:28:20;9.30;;;6.63;;
46415;SDS011;32620;51.704;7.822;2023-06-10T13:30:46;7.93;;;6.55;;
46415;SDS011;32620;51.704;7.822;2023-06-10T13:33:11;8.18;;;6.40;;
46415;SDS011;32620;51.704;7.822;2023-06-10T13:35:37;8.07;;;6.20;;
46415;SDS011;32620;51.704;7.822;2023-06-10T13:38:03;9.57;;;6.78;;
46415;SDS011;32620;51.704;7.822;2023-06-10T13:40:28;9.50;;;6.80;;
46415;SDS011;32620;51.704;7.822;2023-06-10T13:42:54;7.40;;;6.70;;
46415;SDS011;32620;51.704;7.822;2023-06-10T13:45:20;7.70;;;6.15;;
46415;SDS011;32620;51.704;7.822;2023-06-10T13:47:46;10.60;;;6.68;;
46415;SDS011;32620;51.704;7.822;2023-06-10T13:50:11;7.03;;;6.25;;
46415;SDS011;32620;51.704;7.822;2023-06-10T13:52:38;9.27;;;6.35;;
46415;SDS011;32620;51.704;7.822;2023-06-10T13:55:04;8.43;;;6.65;;
46415;SDS011;32620;51.704;7.822;2023-06-10T13:57:30;7.55;;;6.72;;
46415;SDS011;32620;51.704;7.822;2023-06-10T13:59:55;10.43;;;7.13;;
46415;SDS011;32620;51.704;7.822;2023-06-10T14:02:21;8.88;;;6.50;;
46415;SDS011;32620;51.704;7.822;2023-06-10T14:04:47;10.18;;;6.38;;
46415;SDS011;32620;51.704;7.822;2023-06-10T14:07:12;9.68;;;6.32;;
46415;SDS011;32620;51.704;7.822;2023-06-10T14:09:38;9.27;;;6.72;;
46415;SDS011;32620;51.704;7.822;2023-06-10T14:12:04;7.40;;;6.47;;
46415;SDS011;32620;51.704;7.822;2023-06-10T14:14:30;6.90;;;6.30;;
46415;SDS011;32620;51.704;7.822;2023-06-10T14:16:57;9.25;;;6.97;;
46415;SDS011;32620;51.704;7.822;2023-06-10T14:19:23;10.43;;;6.47;;
46415;SDS011;32620;51.704;7.822;2023-06-10T14:21:49;7.80;;;5.85;;
46415;SDS011;32620;51.704;7.822;2023-06-10T14:24:14;12.25;;;6.75;;
46415;SDS011;32620;51.704;7.822;2023-06-10T14:26:40;10.38;;;6.45;;
46415;SDS011;32620;51.704;7.822;2023-06-10T14:29:06;7.95;;;6.40;;
46415;SDS011;32620;51.704;7.822;2023-06-10T14:31:32;7.53;;;6.15;;
46415;SDS011;32620;51.704;7.822;2023-06-10T14:33:57;11.27;;;6.38;;
46415;SDS011;32620;51.704;7.822;2023-06-10T14:36:23;9.05;;;7.05;;
46415;SDS011;32620;51.704;7.822;2023-06-10T14:38:48;8.23;;;6.15;;
46415;SDS011;32620;51.704;7.822;2023-06-10T14:41:14;7.88;;;5.97;;
46415;SDS011;32620;51.704;7.822;2023-06-10T14:43:40;7.40;;;6.45;;
46415;SDS011;32620;51.704;7.822;2023-06-10T14:46:05;11.75;;;6.70;;
46415;SDS011;32620;51.704;7.822;2023-06-10T14:48:31;8.13;;;6.28;;
46415;SDS011;32620;51.704;7.822;2023-06-10T14:50:57;7.22;;;5.93;;
46415;SDS011;32620;51.704;7.822;2023-06-10T14:53:22;7.55;;;6.00;;
46415;SDS011;32620;51.704;7.822;2023-06-10T14:55:48;11.45;;;6.30;;
46415;SDS011;32620;51.704;7.822;2023-06-10T14:58:13;7.57;;;6.78;;